LECO/LCG METAR and TAF weather

Enter ICAO airport designator
Station Type Date Time Source
LECO METAR 2021/10/24 20:30 UTC NOAA

LECO 242030Z 15004KT 8000 3900E SCT026 BKN032 15/15 Q1022 TEMPO 3000 BR -RA


Station Type Date Time Source
LECO Decoded METAR 2021/10/24 20:30 UTC NOAA

La Coruna / Alvedro, Spain (LECO) 43-18N 008-23W 103M
Oct 24, 2021 - 04:30 PM EDT / 2021.10.24 2030 UTC
Wind: from the SSE (150 degrees) at 5 MPH (4 KT):0
Visibility: 4 mile(s):0
Sky conditions: mostly cloudy
Temperature: 59 F (15 C)
Dew Point: 59 F (15 C)
Relative Humidity: 100%
Pressure (altimeter): 30.18 in. Hg (1022 hPa)
ob: LECO 242030Z 15004KT 8000 3900E SCT026 BKN032 15/15 Q1022 TEMPO 3000 BR -RA
cycle: 20

Station Type Date Time Source
LECO TAF 2021/10/24 21:27 UTC NOAA

TAF LECO 242000Z 2421/2521 18005KT 9999 FEW020 SCT035 TX18/2515Z TN09/2506Z PROB30
TEMPO 2500/2503 3000 -RA BR BKN010
TEMPO 2503/2512 3000 RA BR BKN010 PROB40
TEMPO 2500/2507 0800 -RA BCFG BKN002 BKN005 PROB30
TEMPO 2500/2507 0350 BCFG BKN001
TEMPO 2510/2519 35010KT

Example: see airport list